createdAt,value
2018-07-08T00:02:27.620Z,47.88
2018-07-08T00:04:56.299Z,47.38
2018-07-08T00:07:25.379Z,47.97
2018-07-08T00:09:57.222Z,47.85
2018-07-08T00:12:24.909Z,48.41
2018-07-08T00:14:52.865Z,48.01
2018-07-08T00:17:20.525Z,47.83
2018-07-08T00:19:50.081Z,48.43
2018-07-08T00:22:19.506Z,48.85
2018-07-08T00:24:48.381Z,48.64
2018-07-08T00:27:16.564Z,48.45
2018-07-08T00:29:44.499Z,48.60
2018-07-08T00:32:12.165Z,48.87
2018-07-08T00:34:40.352Z,49.24
2018-07-08T00:37:08.535Z,48.96
2018-07-08T00:39:36.220Z,48.86
2018-07-08T00:42:04.944Z,49.16
2018-07-08T00:44:32.874Z,48.93
2018-07-08T00:47:00.552Z,48.81
2018-07-08T00:49:28.257Z,48.75
2018-07-08T00:51:59.859Z,49.26
2018-07-08T00:54:27.501Z,49.52
2018-07-08T00:56:55.417Z,49.53
2018-07-08T00:59:27.168Z,49.69
2018-07-08T01:01:54.836Z,50.04
2018-07-08T01:04:22.493Z,49.37
2018-07-08T01:06:50.980Z,49.76
2018-07-08T01:09:18.928Z,49.56
2018-07-08T01:11:46.629Z,50.48
2018-07-08T01:14:14.297Z,50.01
2018-07-08T01:16:42.176Z,49.98
2018-07-08T01:19:10.134Z,50.05
2018-07-08T01:21:37.828Z,50.04
2018-07-08T01:24:05.489Z,50.70
2018-07-08T01:26:33.147Z,50.27
2018-07-08T01:29:01.216Z,50.25
2018-07-08T01:31:31.699Z,50.11
2018-07-08T01:33:59.363Z,50.48
2018-07-08T01:36:28.356Z,50.19
2018-07-08T01:38:56.338Z,50.21
2018-07-08T01:41:24.044Z,50.22
2018-07-08T01:43:51.692Z,50.54
2018-07-08T01:46:20.696Z,50.76
2018-07-08T01:48:48.360Z,50.89
2018-07-08T01:51:16.040Z,51.02
2018-07-08T01:53:44.175Z,51.31
2018-07-08T01:56:11.836Z,51.54
2018-07-08T01:58:39.495Z,52.26
2018-07-08T02:01:07.563Z,52.00
2018-07-08T02:03:35.252Z,52.64
2018-07-08T02:06:02.934Z,52.39
2018-07-08T02:08:30.616Z,52.88
2018-07-08T02:10:59.068Z,52.70
2018-07-08T02:13:26.764Z,52.71
2018-07-08T02:15:54.412Z,52.66
2018-07-08T02:18:22.055Z,52.99
2018-07-08T02:20:49.730Z,53.38
2018-07-08T02:23:17.377Z,53.05
2018-07-08T02:25:45.716Z,53.09
2018-07-08T02:28:13.731Z,53.12
2018-07-08T02:30:41.419Z,53.08
2018-07-08T02:33:09.056Z,53.01
2018-07-08T02:35:36.768Z,52.97
2018-07-08T02:38:04.737Z,53.13
2018-07-08T02:40:32.391Z,53.12
2018-07-08T02:43:00.065Z,53.57
2018-07-08T02:45:27.721Z,53.30
2018-07-08T02:47:55.662Z,52.79
2018-07-08T02:50:23.329Z,52.89
2018-07-08T02:52:50.997Z,52.92
2018-07-08T02:55:18.654Z,53.29
2018-07-08T02:57:46.649Z,53.82
2018-07-08T03:00:14.332Z,53.52
2018-07-08T03:02:42.021Z,53.46
2018-07-08T03:05:09.947Z,54.19
2018-07-08T03:07:37.589Z,54.33
2018-07-08T03:10:05.240Z,53.96
2018-07-08T03:12:33.183Z,54.68
2018-07-08T03:15:02.001Z,54.32
2018-07-08T03:17:29.769Z,54.59
2018-07-08T03:19:57.723Z,54.48
2018-07-08T03:22:25.393Z,54.82
2018-07-08T03:24:53.055Z,54.91
2018-07-08T03:27:21.021Z,54.53
2018-07-08T03:29:48.711Z,55.08
2018-07-08T03:32:16.383Z,55.10
2018-07-08T03:34:44.043Z,54.98
2018-07-08T03:37:12.019Z,55.54
2018-07-08T03:39:39.671Z,55.37
2018-07-08T03:42:07.336Z,55.17
2018-07-08T03:44:35.291Z,55.58
2018-07-08T03:47:02.948Z,54.82
2018-07-08T03:49:30.629Z,55.16
2018-07-08T03:51:58.580Z,55.06
2018-07-08T03:54:26.887Z,55.21
2018-07-08T03:56:54.551Z,54.79
2018-07-08T03:59:22.659Z,54.95
2018-07-08T04:01:50.383Z,55.13
2018-07-08T04:04:18.192Z,54.20
2018-07-08T04:06:45.860Z,54.42
2018-07-08T04:09:14.041Z,54.61
2018-07-08T04:11:41.703Z,55.07
2018-07-08T04:14:09.356Z,54.65
2018-07-08T04:16:37.041Z,54.16
2018-07-08T04:19:05.014Z,54.91
2018-07-08T04:21:32.672Z,54.32
2018-07-08T04:24:00.344Z,53.98
2018-07-08T04:26:28.056Z,54.01
2018-07-08T04:28:56.000Z,53.85
2018-07-08T04:31:24.329Z,53.90
2018-07-08T04:33:52.027Z,53.19
2018-07-08T04:36:19.988Z,53.80
2018-07-08T04:38:47.736Z,53.25
2018-07-08T04:41:15.392Z,52.69
2018-07-08T04:43:43.323Z,52.73
2018-07-08T04:46:11.844Z,52.34
2018-07-08T04:48:39.526Z,52.54
2018-07-08T04:51:07.191Z,52.32
2018-07-08T04:53:34.851Z,51.41
2018-07-08T04:56:02.504Z,51.17
2018-07-08T04:58:30.152Z,51.71
2018-07-08T05:00:58.179Z,51.45
2018-07-08T05:03:25.852Z,51.18
2018-07-08T05:05:53.561Z,50.66
2018-07-08T05:08:21.216Z,50.79
2018-07-08T05:10:49.210Z,50.68
2018-07-08T05:13:16.916Z,50.66
2018-07-08T05:15:45.544Z,51.08
2018-07-08T05:18:15.422Z,50.42
2018-07-08T05:20:43.109Z,50.53
2018-07-08T05:23:10.762Z,50.70
2018-07-08T05:25:38.426Z,50.60
2018-07-08T05:28:06.987Z,50.59
2018-07-08T05:30:34.684Z,50.24
2018-07-08T05:33:02.357Z,50.05
2018-07-08T05:35:30.280Z,50.45
2018-07-08T05:37:59.119Z,50.15
2018-07-08T05:40:26.782Z,49.91
2018-07-08T05:42:57.549Z,50.26
2018-07-08T05:45:26.089Z,50.07
2018-07-08T05:47:53.793Z,49.60
2018-07-08T05:50:21.487Z,49.91
2018-07-08T05:52:49.468Z,49.83
2018-07-08T05:55:17.135Z,49.87
2018-07-08T05:57:45.289Z,49.59
2018-07-08T06:00:15.520Z,49.71
2018-07-08T06:02:43.426Z,49.74
2018-07-08T06:05:11.260Z,49.70
2018-07-08T06:07:38.916Z,49.83
2018-07-08T06:10:06.932Z,49.58
2018-07-08T06:15:08.615Z,48.54
2018-07-08T06:17:37.388Z,48.21
2018-07-08T06:20:05.073Z,48.17
2018-07-08T06:22:33.386Z,47.81
2018-07-08T06:25:01.365Z,48.27
2018-07-08T06:27:29.028Z,47.76
2018-07-08T06:29:56.700Z,47.80
2018-07-08T06:32:24.637Z,48.42
2018-07-08T06:34:52.286Z,48.36
2018-07-08T06:37:19.972Z,48.26
2018-07-08T06:39:47.992Z,47.69
2018-07-08T06:42:15.633Z,47.74
2018-07-08T06:44:44.208Z,47.59
2018-07-08T06:47:11.887Z,48.14
2018-07-08T06:49:41.978Z,48.66
2018-07-08T06:52:09.631Z,48.27
2018-07-08T06:54:37.338Z,48.05
2018-07-08T06:57:05.299Z,48.25
2018-07-08T06:59:36.328Z,48.78
2018-07-08T07:02:03.989Z,48.07
2018-07-08T07:04:38.723Z,48.67
2018-07-08T07:07:08.138Z,48.73
2018-07-08T07:09:37.289Z,48.55
2018-07-08T07:12:08.264Z,48.72
2018-07-08T07:14:39.509Z,48.81
2018-07-08T07:17:07.164Z,48.02
2018-07-08T07:19:35.830Z,48.62
2018-07-08T07:22:06.467Z,48.83
2018-07-08T07:24:36.372Z,48.70
2018-07-08T07:27:04.068Z,48.44
2018-07-08T07:29:33.715Z,48.39
2018-07-08T07:32:02.336Z,48.14
2018-07-08T07:34:30.555Z,48.26
2018-07-08T07:36:58.571Z,48.08
2018-07-08T07:39:27.636Z,47.41
2018-07-08T07:41:55.336Z,47.35
2018-07-08T07:44:23.015Z,47.25
2018-07-08T07:46:51.529Z,47.50
2018-07-08T07:49:20.795Z,47.30
2018-07-08T07:51:50.136Z,46.84
2018-07-08T07:54:19.401Z,47.10
2018-07-08T07:56:48.110Z,47.17
2018-07-08T07:59:17.407Z,47.03
2018-07-08T08:01:45.376Z,46.45
2018-07-08T08:04:14.551Z,47.03
2018-07-08T08:06:42.285Z,46.68
2018-07-08T08:09:10.281Z,46.42
2018-07-08T08:11:39.722Z,45.45
2018-07-08T08:14:08.861Z,46.01
2018-07-08T08:16:36.856Z,45.72
2018-07-08T08:19:05.224Z,45.36
2018-07-08T08:21:33.492Z,45.15
2018-07-08T08:24:01.617Z,44.96
2018-07-08T08:26:34.587Z,44.48
2018-07-08T08:29:03.891Z,45.07
2018-07-08T08:31:32.498Z,44.60
2018-07-08T08:34:02.927Z,43.94
2018-07-08T08:36:30.596Z,44.78
2018-07-08T08:39:00.254Z,44.06
2018-07-08T08:41:28.767Z,44.05
2018-07-08T08:44:01.240Z,44.36
2018-07-08T08:46:34.290Z,43.48
2018-07-08T08:49:02.574Z,43.45
2018-07-08T08:51:30.989Z,43.37
2018-07-08T08:54:00.327Z,43.17
2018-07-08T08:56:29.742Z,43.67
2018-07-08T08:59:03.320Z,43.49
2018-07-08T09:01:33.384Z,43.50
2018-07-08T09:04:01.747Z,43.34
2018-07-08T09:06:32.449Z,42.36
2018-07-08T09:09:00.392Z,42.88
2018-07-08T09:11:28.066Z,42.07
2018-07-08T09:13:56.486Z,41.87
2018-07-08T09:16:30.495Z,41.87
2018-07-08T09:18:59.977Z,41.27
2018-07-08T09:21:28.590Z,41.13
2018-07-08T09:23:58.530Z,40.74
2018-07-08T09:26:26.207Z,40.94
2018-07-08T09:28:59.367Z,40.98
2018-07-08T09:31:28.190Z,40.08
2018-07-08T09:33:55.936Z,40.00
2018-07-08T09:36:24.536Z,39.57
2018-07-08T09:38:53.380Z,39.93
2018-07-08T09:41:21.921Z,39.73
2018-07-08T09:43:52.336Z,38.55
2018-07-08T09:46:25.635Z,38.56
2018-07-08T09:48:53.284Z,38.54
2018-07-08T09:51:23.262Z,38.34
2018-07-08T09:53:54.489Z,38.13
2018-07-08T09:56:22.331Z,38.66
2018-07-08T09:58:50.324Z,38.79
2018-07-08T10:01:18.013Z,37.77
2018-07-08T10:03:45.771Z,37.93
2018-07-08T10:06:19.310Z,37.59
2018-07-08T10:08:48.077Z,36.50
2018-07-08T10:11:15.724Z,36.44
2018-07-08T10:13:46.329Z,36.11
2018-07-08T10:16:14.923Z,35.57
2018-07-08T10:18:42.593Z,34.83
2018-07-08T10:21:13.492Z,33.97
2018-07-08T10:23:43.451Z,33.78
2018-07-08T10:26:16.316Z,33.22
2018-07-08T10:28:48.779Z,32.91
2018-07-08T10:31:18.319Z,33.39
2018-07-08T10:33:51.675Z,33.31
2018-07-08T10:36:21.437Z,32.27
2018-07-08T10:38:56.192Z,31.88
2018-07-08T10:41:24.571Z,31.96
2018-07-08T10:43:53.371Z,32.45
2018-07-08T10:46:22.487Z,31.65
2018-07-08T10:48:51.359Z,32.13
2018-07-08T10:51:19.252Z,31.32
2018-07-08T10:53:46.929Z,31.18
2018-07-08T10:56:14.634Z,31.82
2018-07-08T10:58:43.815Z,30.47
2018-07-08T11:01:15.235Z,29.91
2018-07-08T11:03:43.796Z,29.88
2018-07-08T11:06:17.112Z,29.12
2018-07-08T11:08:51.566Z,29.89
2018-07-08T11:11:20.697Z,29.66
2018-07-08T11:13:49.831Z,29.84
2018-07-08T11:16:17.697Z,28.81
2018-07-08T11:18:46.663Z,29.24
2018-07-08T11:21:18.115Z,29.22
2018-07-08T11:23:47.945Z,28.18
2018-07-08T11:26:17.410Z,28.55
2018-07-08T11:28:46.928Z,27.41
2018-07-08T11:31:16.487Z,28.21
2018-07-08T11:33:48.347Z,27.82
2018-07-08T11:36:16.925Z,27.92
2018-07-08T11:38:46.257Z,26.76
2018-07-08T11:41:17.490Z,27.40
2018-07-08T11:43:45.445Z,27.34
2018-07-08T11:46:17.550Z,26.92
2018-07-08T11:48:46.506Z,26.66
2018-07-08T11:51:19.401Z,26.20
2018-07-08T11:53:47.109Z,26.78
2018-07-08T11:56:16.269Z,25.53
2018-07-08T11:58:47.256Z,25.54
2018-07-08T12:01:16.581Z,26.36
2018-07-08T12:03:48.358Z,26.33
2018-07-08T12:06:17.727Z,25.37
2018-07-08T12:08:47.049Z,25.31
2018-07-08T12:11:16.418Z,25.09
2018-07-08T12:13:45.400Z,25.03
2018-07-08T12:16:18.203Z,25.80
2018-07-08T12:18:47.788Z,24.99
2018-07-08T12:21:22.634Z,25.21
2018-07-08T12:23:50.269Z,25.95
2018-07-08T12:26:21.739Z,24.91
2018-07-08T12:28:49.734Z,25.50
2018-07-08T12:31:17.623Z,25.27
2018-07-08T12:33:45.568Z,24.24
2018-07-08T12:36:14.723Z,24.32
2018-07-08T12:38:43.456Z,24.65
2018-07-08T12:41:13.264Z,23.54
2018-07-08T12:43:42.301Z,24.47
2018-07-08T12:46:10.640Z,24.65
2018-07-08T12:48:41.436Z,24.27
2018-07-08T12:51:13.683Z,24.22
2018-07-08T12:53:43.385Z,23.65
2018-07-08T12:56:12.264Z,23.76
2018-07-08T12:58:40.167Z,23.72
2018-07-08T13:01:07.944Z,23.65
2018-07-08T13:03:36.415Z,22.62
2018-07-08T13:06:05.488Z,22.65
2018-07-08T13:11:13.480Z,22.34
2018-07-08T13:13:41.158Z,23.07
2018-07-08T13:16:10.446Z,21.96
2018-07-08T13:18:39.666Z,23.30
2018-07-08T13:21:07.576Z,22.29
2018-07-08T13:23:37.198Z,22.38
2018-07-08T13:26:06.963Z,22.79
2018-07-08T13:28:37.758Z,21.83
2018-07-08T13:31:06.268Z,22.62
2018-07-08T13:33:34.213Z,21.69
2018-07-08T13:36:02.967Z,21.20
2018-07-08T13:38:31.210Z,20.96
2018-07-08T13:40:59.802Z,21.24
2018-07-08T13:43:30.705Z,20.92
2018-07-08T13:46:00.186Z,21.43
2018-07-08T13:48:29.300Z,21.27
2018-07-08T13:50:57.688Z,21.02
2018-07-08T13:53:25.397Z,20.12
2018-07-08T13:55:54.402Z,19.92
2018-07-08T13:58:25.226Z,20.62
2018-07-08T14:00:56.975Z,20.73
2018-07-08T14:03:27.164Z,20.39
2018-07-08T14:05:54.997Z,20.10
2018-07-08T14:08:23.390Z,20.57
2018-07-08T14:10:51.373Z,19.99
2018-07-08T14:13:20.676Z,21.01
2018-07-08T14:15:50.498Z,20.33
2018-07-08T14:18:18.477Z,20.81
2018-07-08T14:20:46.304Z,20.14
2018-07-08T14:23:14.004Z,20.58
2018-07-08T14:25:44.645Z,19.14
2018-07-08T14:28:12.324Z,19.14
2018-07-08T14:30:42.420Z,19.28
2018-07-08T14:33:13.147Z,19.00
2018-07-08T14:35:41.865Z,18.97
2018-07-08T14:38:09.584Z,19.03
2018-07-08T14:40:37.736Z,18.90
2018-07-08T14:43:07.645Z,19.37
2018-07-08T14:45:35.738Z,20.11
2018-07-08T14:48:04.271Z,18.95
2018-07-08T14:50:39.423Z,19.32
2018-07-08T14:53:08.098Z,19.42
2018-07-08T14:55:39.578Z,19.67
2018-07-08T14:58:08.409Z,19.22
2018-07-08T15:00:38.390Z,19.74
2018-07-08T15:03:07.288Z,20.11
2018-07-08T15:05:36.863Z,18.87
2018-07-08T15:08:04.551Z,19.30
2018-07-08T15:10:33.409Z,19.80
2018-07-08T15:13:02.391Z,19.85
2018-07-08T15:15:31.380Z,18.91
2018-07-08T15:18:00.364Z,18.88
2018-07-08T15:20:28.072Z,18.70
2018-07-08T15:22:55.750Z,18.83
2018-07-08T15:25:23.411Z,18.40
2018-07-08T15:27:51.928Z,19.16
2018-07-08T15:30:21.057Z,17.75
2018-07-08T15:32:49.653Z,19.44
2018-07-08T15:35:19.047Z,19.72
2018-07-08T15:37:49.363Z,19.29
2018-07-08T15:40:17.015Z,18.91
2018-07-08T15:42:45.517Z,19.37
2018-07-08T15:45:13.712Z,19.37
2018-07-08T15:47:41.641Z,20.75
2018-07-08T15:50:10.811Z,20.42
2018-07-08T15:52:38.771Z,20.32
2018-07-08T15:55:07.661Z,19.66
2018-07-08T15:57:37.225Z,19.88
2018-07-08T16:00:05.337Z,21.02
2018-07-08T16:02:34.120Z,20.92
2018-07-08T16:05:02.615Z,20.73
2018-07-08T16:07:30.796Z,21.29
2018-07-08T16:09:58.460Z,20.90
2018-07-08T16:12:28.356Z,20.67
2018-07-08T16:14:58.165Z,21.08
2018-07-08T16:17:25.844Z,20.80
2018-07-08T16:19:55.160Z,20.86
2018-07-08T16:22:23.316Z,20.89
2018-07-08T16:24:51.723Z,20.52
2018-07-08T16:27:22.923Z,21.93
2018-07-08T16:29:50.988Z,21.54
2018-07-08T16:34:52.687Z,24.97
2018-07-08T16:37:21.797Z,26.13
2018-07-08T16:39:50.592Z,26.87
2018-07-08T16:42:18.265Z,26.97
2018-07-08T16:44:46.703Z,28.33
2018-07-08T16:47:15.679Z,28.22
2018-07-08T16:49:46.231Z,29.02
2018-07-08T16:52:15.508Z,28.12
2018-07-08T16:54:43.342Z,26.91
2018-07-08T16:59:53.622Z,26.38
2018-07-08T17:02:21.347Z,26.54
2018-07-08T17:04:49.246Z,27.16
2018-07-08T17:07:21.456Z,28.76
2018-07-08T17:09:51.827Z,29.38
2018-07-08T17:12:19.476Z,29.31
2018-07-08T17:14:51.108Z,29.99
2018-07-08T17:17:19.587Z,30.67
2018-07-08T17:19:50.037Z,30.78
2018-07-08T17:22:20.042Z,30.95
2018-07-08T17:24:47.704Z,30.41
2018-07-08T17:27:16.483Z,30.56
2018-07-08T17:29:45.640Z,30.91
2018-07-08T17:32:14.498Z,31.61
2018-07-08T17:34:42.672Z,31.16
2018-07-08T17:37:10.678Z,31.91
2018-07-08T17:39:38.547Z,31.45
2018-07-08T17:42:08.363Z,32.24
2018-07-08T17:44:37.740Z,32.12
2018-07-08T17:47:05.452Z,31.59
2018-07-08T17:49:33.331Z,31.58
2018-07-08T17:52:03.568Z,31.80
2018-07-08T17:54:32.706Z,32.20
2018-07-08T17:57:00.795Z,32.34
2018-07-08T17:59:29.948Z,31.81
2018-07-08T18:01:57.619Z,32.67
2018-07-08T18:04:25.767Z,32.02
2018-07-08T18:06:53.728Z,32.74
2018-07-08T18:09:24.320Z,32.31
2018-07-08T18:11:52.912Z,32.96
2018-07-08T18:14:21.053Z,33.07
2018-07-08T18:16:48.749Z,32.32
2018-07-08T18:19:16.440Z,32.64
2018-07-08T18:21:44.997Z,32.88
2018-07-08T18:24:18.254Z,33.10
2018-07-08T18:26:50.427Z,33.53
2018-07-08T18:29:20.453Z,32.65
2018-07-08T18:31:50.018Z,33.62
2018-07-08T18:34:19.844Z,33.17
2018-07-08T18:37:10.455Z,33.12
2018-07-08T18:39:38.137Z,33.33
2018-07-08T18:42:09.852Z,33.68
2018-07-08T18:44:38.292Z,33.81
2018-07-08T18:47:07.696Z,33.96
2018-07-08T18:49:35.632Z,33.70
2018-07-08T18:52:05.327Z,34.08
2018-07-08T18:54:33.550Z,34.06
2018-07-08T18:57:02.721Z,33.85
2018-07-08T18:59:49.220Z,33.90
2018-07-08T19:02:17.245Z,34.09
2018-07-08T19:04:45.496Z,33.57
2018-07-08T19:07:15.247Z,33.99
2018-07-08T19:09:43.972Z,33.88
2018-07-08T19:12:12.223Z,34.08
2018-07-08T19:14:42.544Z,34.77
2018-07-08T19:17:10.513Z,34.18
2018-07-08T19:19:39.370Z,34.96
2018-07-08T19:22:09.333Z,34.66
2018-07-08T19:24:42.044Z,34.43
2018-07-08T19:27:10.488Z,35.06
2018-07-08T19:29:40.528Z,35.56
2018-07-08T19:32:08.480Z,34.67
2018-07-08T19:34:37.180Z,34.80
2018-07-08T19:37:08.522Z,35.01
2018-07-08T19:39:36.722Z,35.46
2018-07-08T19:42:08.188Z,35.34
2018-07-08T19:44:35.865Z,36.00
2018-07-08T19:47:03.831Z,35.99
2018-07-08T19:49:31.535Z,36.00
2018-07-08T19:51:59.216Z,36.49
2018-07-08T19:54:28.217Z,35.86
2018-07-08T19:56:56.726Z,36.64
2018-07-08T19:59:24.409Z,36.83
2018-07-08T20:01:52.397Z,36.68
2018-07-08T20:04:20.092Z,36.45
2018-07-08T20:06:52.546Z,36.93
2018-07-08T20:09:21.848Z,36.60
2018-07-08T20:11:50.097Z,36.56
2018-07-08T20:14:18.740Z,37.19
2018-07-08T20:16:46.743Z,37.28
2018-07-08T20:19:14.408Z,37.80
2018-07-08T20:21:46.086Z,36.99
2018-07-08T20:24:16.205Z,37.28
2018-07-08T20:26:45.335Z,37.57
2018-07-08T20:29:13.296Z,37.48
2018-07-08T20:31:43.397Z,37.48
2018-07-08T20:34:12.532Z,38.22
2018-07-08T20:36:40.200Z,38.31
2018-07-08T20:39:10.537Z,38.17
2018-07-08T20:41:38.735Z,38.19
2018-07-08T20:44:10.640Z,38.52
2018-07-08T20:46:41.816Z,38.43
2018-07-08T20:49:12.112Z,38.38
2018-07-08T20:51:41.240Z,38.55
2018-07-08T20:54:09.204Z,38.57
2018-07-08T20:56:37.702Z,38.10
2018-07-08T20:59:08.731Z,38.89
2018-07-08T21:01:36.705Z,39.05
2018-07-08T21:04:04.368Z,39.04
2018-07-08T21:06:35.748Z,38.89
2018-07-08T21:09:08.918Z,39.25
2018-07-08T21:11:39.460Z,38.61
2018-07-08T21:14:10.564Z,39.21
2018-07-08T21:16:41.860Z,39.53
2018-07-08T21:19:10.248Z,38.74
2018-07-08T21:21:38.297Z,38.83
2018-07-08T21:24:06.283Z,39.50
2018-07-08T21:26:34.011Z,39.28
2018-07-08T21:29:02.612Z,39.58
2018-07-08T21:31:31.223Z,40.02
2018-07-08T21:34:01.902Z,39.76
2018-07-08T21:36:30.920Z,39.12
2018-07-08T21:38:58.575Z,40.11
2018-07-08T21:41:26.232Z,39.85
2018-07-08T21:43:55.295Z,39.81
2018-07-08T21:46:25.721Z,39.93
2018-07-08T21:48:54.300Z,40.40
2018-07-08T21:51:24.388Z,39.91
2018-07-08T21:53:52.049Z,40.04
2018-07-08T21:56:20.647Z,40.61
2018-07-08T21:58:51.669Z,40.08
2018-07-08T22:01:20.488Z,40.08
2018-07-08T22:03:50.120Z,40.77
2018-07-08T22:06:19.753Z,40.97
2018-07-08T22:08:48.641Z,40.22
2018-07-08T22:11:19.140Z,40.45
2018-07-08T22:13:48.240Z,41.20
2018-07-08T22:16:15.918Z,40.64
2018-07-08T22:18:43.564Z,41.32
2018-07-08T22:21:11.668Z,41.17
2018-07-08T22:23:41.433Z,40.63
2018-07-08T22:26:11.047Z,40.70
2018-07-08T22:28:38.980Z,41.37
2018-07-08T22:31:07.160Z,40.98
2018-07-08T22:33:34.824Z,41.16
2018-07-08T22:36:05.394Z,41.28
2018-07-08T22:38:33.808Z,41.25
2018-07-08T22:41:02.029Z,41.68
2018-07-08T22:43:33.916Z,41.79
2018-07-08T22:46:03.276Z,41.30
2018-07-08T22:48:34.455Z,42.07
2018-07-08T22:51:02.531Z,41.48
2018-07-08T22:53:30.875Z,41.92
2018-07-08T22:55:59.345Z,41.62
2018-07-08T22:58:27.281Z,41.91
2018-07-08T23:00:54.943Z,42.36
2018-07-08T23:03:23.207Z,42.60
2018-07-08T23:05:51.348Z,41.85
2018-07-08T23:08:21.808Z,42.63
2018-07-08T23:10:50.284Z,42.14
2018-07-08T23:13:21.827Z,42.10
2018-07-08T23:15:50.300Z,42.88
2018-07-08T23:18:18.016Z,42.24
2018-07-08T23:20:45.681Z,42.44
2018-07-08T23:23:13.632Z,42.91
2018-07-08T23:25:41.284Z,42.42
2018-07-08T23:28:08.934Z,43.32
2018-07-08T23:30:36.855Z,43.46
2018-07-08T23:33:04.520Z,43.13
2018-07-08T23:35:33.585Z,43.28
2018-07-08T23:38:01.549Z,43.41
2018-07-08T23:40:32.200Z,43.58
2018-07-08T23:43:00.939Z,43.45
2018-07-08T23:45:29.592Z,43.65
2018-07-08T23:47:57.256Z,43.74
2018-07-08T23:50:24.907Z,43.78
2018-07-08T23:52:52.610Z,44.04
2018-07-08T23:55:20.795Z,43.95
2018-07-08T23:57:49.245Z,44.17
